Main page
METAR-TAF:

METAR-TAF

Airports :

Audubon County Airport

Audubon, Iowa, United States

latitude: 41-42-04N, longitude: 094-55-13W, elevation: 1286 ft

Current weather observation

The report was made 19 minutes ago, at 07:35 UTC
Wind 6 mph from the West/Northwest
Temperature 52°F
Humidity 87%
Pressure 29.79 in. Hg
Visibility: 10 miles

METAR: KADU 220735Z AUTO 29005KT 10SM 11/09 A2979 RMK AO2 PWINO

Time: 02:54 (07:54 UTC)


TAF: missing

Weather observations and forecasts of more than 4000 airports (METAR and TAF reports).

The available stations are represented by yellow and red dots on the map.

Hover mouse over dot to see the name of the station.

Then click to see weather observations and forecasts.

To change the map : click on the green buttons with a black cross to zoom in, on the green button with a dash to zoom out, or on the green arrows for adjacent maps.


METAR-TAF: